Time;durP1;ratioP1;P1;durP2;ratioP2;P2;SDS_P1;SDS_P2;PMS_P1;PMS_P2;Temp;Humidity;BMP_temperature;BMP_pressure;BME280_temperature;BME280_humidity;BME280_pressure;Samples;Min_cycle;Max_cycle;Signal;HPM_P1;HPM_P2
2022/11/23 00:02:13;590734.00;1.97;1018.22;30115.00;0.10;52.78;;;;;12.30;1.00;;;;;;2260352;61;1103;-90
2022/11/23 00:04:40;507647.00;1.69;874.99;29915.00;0.10;52.44;;;;;12.10;1.00;;;;;;2260170;61;998;-87
2022/11/23 00:07:07;524742.00;1.75;904.43;0.00;0.00;0.62;;;;;11.90;1.00;;;;;;2260234;61;945;-86
2022/11/23 00:09:34;887503.00;2.96;1534.18;65139.00;0.22;113.36;;;;;12.10;1.00;;;;;;2260494;61;1211;-87
2022/11/23 00:12:01;465849.00;1.55;803.05;24160.00;0.08;42.47;;;;;11.90;1.00;;;;;;2260243;61;1035;-87
2022/11/23 00:14:27;602479.00;2.01;1038.50;0.00;0.00;0.62;;;;;11.50;1.00;;;;;;2260418;61;1757;-85
2022/11/23 00:19:30;1088101.00;3.63;1889.16;0.00;0.00;0.62;;;;;10.70;1.00;;;;;;2261805;61;1919;-88
2022/11/23 00:29:24;273488.00;0.91;472.34;0.00;0.00;0.62;;;;;10.60;1.00;;;;;;2270731;40;3525;-87
2022/11/23 00:31:51;274181.00;0.91;473.53;0.00;0.00;0.62;;;;;11.00;1.00;;;;;;2260009;61;982;-87
2022/11/23 00:36:47;704648.00;2.35;1215.30;0.00;0.00;0.62;;;;;11.40;1.00;;;;;;2261970;61;1409;-87
2022/11/23 00:39:14;355800.00;1.19;613.83;0.00;0.00;0.62;;;;;11.50;1.00;;;;;;2275375;40;3657;-88
2022/11/23 00:41:41;235540.00;0.79;407.08;0.00;0.00;0.62;;;;;11.30;1.00;;;;;;2264272;61;964;-88
2022/11/23 00:44:08;169890.00;0.57;294.08;0.00;0.00;0.62;;;;;11.60;1.00;;;;;;2264329;61;1042;-86
2022/11/23 00:49:05;905539.00;3.02;1565.85;0.00;0.00;0.62;;;;;12.30;1.00;;;;;;2257838;61;1439;-89
2022/11/23 00:51:34;193994.00;0.65;335.58;0.00;0.00;0.62;;;;;12.10;1.00;;;;;;2256018;61;1009;-86
2022/11/23 00:56:34;782210.00;2.61;1350.12;0.00;0.00;0.62;;;;;10.70;1.00;;;;;;2261640;61;1438;-88
2022/11/23 00:59:03;202583.00;0.68;350.37;0.00;0.00;0.62;;;;;10.10;1.00;;;;;;2273234;40;3711;-88
2022/11/23 01:01:32;160800.00;0.54;278.42;0.00;0.00;0.62;;;;;9.80;1.00;;;;;;2264154;61;1130;-88
2022/11/23 01:06:34;927437.00;3.09;1604.36;0.00;0.00;0.62;;;;;9.30;1.00;;;;;;2261871;61;1252;-88
2022/11/23 01:09:05;59149.00;0.20;103.01;0.00;0.00;0.62;;;;;8.90;1.00;;;;;;2259997;61;1428;-89
2022/11/23 01:11:34;218638.00;0.73;378.00;0.00;0.00;0.62;;;;;9.40;1.00;;;;;;2260373;61;1606;-87
2022/11/23 01:14:01;226024.00;0.75;390.71;0.00;0.00;0.62;;;;;9.30;1.00;;;;;;2260249;61;1591;-86
2022/11/23 01:16:30;175620.00;0.59;303.95;0.00;0.00;0.62;;;;;9.30;1.00;;;;;;2309568;56;3766;-87
2022/11/23 01:18:59;92157.00;0.31;160.03;0.00;0.00;0.62;;;;;9.70;1.00;;;;;;2264173;61;2002;-87
2022/11/23 01:21:28;160381.00;0.53;277.70;0.00;0.00;0.62;;;;;10.50;1.00;;;;;;2264134;61;1101;-87
2022/11/23 01:23:56;202559.00;0.68;350.33;0.00;0.00;0.62;;;;;11.20;1.00;;;;;;2264160;61;1063;-87
2022/11/23 01:33:58;1008900.00;3.36;1748.24;0.00;0.00;0.62;;;;;11.20;1.00;;;;;;2261816;61;1257;-87
2022/11/23 01:43:56;426714.00;1.42;735.74;0.00;0.00;0.62;;;;;11.20;1.00;;;;;;2262217;61;1632;-88
2022/11/23 01:56:28;219072.00;0.73;378.75;0.00;0.00;0.62;;;;;11.50;1.00;;;;;;2261681;61;1415;-87
2022/11/23 01:58:59;206729.00;0.69;357.51;5344.00;0.02;9.88;;;;;11.80;1.00;;;;;;2260135;61;1922;-86
2022/11/23 02:03:58;543346.00;1.81;936.49;0.00;0.00;0.62;;;;;11.60;1.00;;;;;;2261961;61;1414;-86
2022/11/23 02:08:55;687482.00;2.29;1185.54;0.00;0.00;0.62;;;;;11.60;1.00;;;;;;2292958;41;3538;-86
2022/11/23 02:11:23;119441.00;0.40;207.12;0.00;0.00;0.62;;;;;11.90;1.00;;;;;;2263958;61;1083;-87
2022/11/23 02:13:51;281043.00;0.94;485.33;0.00;0.00;0.62;;;;;12.10;1.00;;;;;;2271355;56;3777;-88
2022/11/23 02:16:19;291166.00;0.97;502.73;33017.00;0.11;57.80;;;;;12.40;1.00;;;;;;2271481;56;3785;-87
2022/11/23 02:18:49;104055.00;0.35;180.57;0.00;0.00;0.62;;;;;12.40;1.00;;;;;;2263978;61;1920;-87
2022/11/23 02:21:16;142474.00;0.47;246.84;0.00;0.00;0.62;;;;;12.60;1.00;;;;;;2264127;61;2014;-86
2022/11/23 02:23:54;261498.00;0.87;451.72;0.00;0.00;0.62;;;;;12.70;1.00;;;;;;2264178;61;1744;-87
2022/11/23 02:26:25;54246.00;0.18;94.53;0.00;0.00;0.62;;;;;12.60;1.00;;;;;;2273817;56;3780;-87
2022/11/23 02:33:50;952958.00;3.18;1649.33;391.00;0.00;1.30;;;;;12.00;1.00;;;;;;2261888;61;1402;-86
2022/11/23 02:36:39;259603.00;0.87;448.47;0.00;0.00;0.62;;;;;11.90;1.00;;;;;;2260000;61;1690;-87
2022/11/23 02:39:09;0.00;0.00;0.62;0.00;0.00;0.62;;;;;12.00;1.00;;;;;;2259975;61;1927;-87
2022/11/23 02:44:17;344902.00;1.15;595.10;0.00;0.00;0.62;;;;;12.50;1.00;;;;;;2261879;61;1414;-88
2022/11/23 02:49:14;481404.00;1.60;829.81;0.00;0.00;0.62;;;;;12.60;1.00;;;;;;2261654;61;1360;-88
2022/11/23 02:51:41;85860.00;0.29;149.16;0.00;0.00;0.62;;;;;12.60;1.00;;;;;;2259948;61;1102;-87
2022/11/23 02:54:08;145685.00;0.49;252.37;0.00;0.00;0.62;;;;;12.60;1.00;;;;;;2259802;61;1040;-87
2022/11/23 02:56:35;372755.00;1.24;642.97;0.00;0.00;0.62;;;;;12.60;1.00;;;;;;2259810;61;1142;-87
2022/11/23 02:59:02;157345.00;0.52;272.46;0.00;0.00;0.62;;;;;12.50;1.00;;;;;;2259768;61;1918;-87
2022/11/23 03:01:30;162696.00;0.54;281.68;0.00;0.00;0.62;;;;;12.30;1.00;;;;;;2260028;61;1143;-87
2022/11/23 03:03:57;150257.00;0.50;260.25;0.00;0.00;0.62;;;;;12.30;1.00;;;;;;2259999;61;1147;-88
2022/11/23 03:06:24;114708.00;0.38;198.95;0.00;0.00;0.62;;;;;12.40;1.00;;;;;;2260092;61;1604;-87
2022/11/23 03:08:50;117378.00;0.39;203.56;0.00;0.00;0.62;;;;;12.20;1.00;;;;;;2260003;61;1301;-87
2022/11/23 03:11:17;34172.00;0.11;59.80;0.00;0.00;0.62;;;;;11.50;1.00;;;;;;2260042;61;1113;-88
2022/11/23 03:13:44;269863.00;0.90;466.11;38760.00;0.13;67.74;;;;;10.90;1.00;;;;;;2260114;61;1579;-88
2022/11/23 03:18:46;31586.00;0.11;55.33;0.00;0.00;0.62;;;;;9.30;1.00;;;;;;2261693;61;1385;-88
2022/11/23 03:21:13;67555.00;0.23;117.54;0.00;0.00;0.62;;;;;9.40;1.00;;;;;;2259935;61;1942;-87
2022/11/23 03:23:40;103282.00;0.34;179.24;0.00;0.00;0.62;;;;;9.60;1.00;;;;;;2259879;61;1060;-87
2022/11/23 03:26:07;0.00;0.00;0.62;0.00;0.00;0.62;;;;;9.90;1.00;;;;;;2260075;61;1035;-87
2022/11/23 03:31:03;139867.00;0.47;242.34;0.00;0.00;0.62;;;;;10.90;1.00;;;;;;2261663;61;1376;-87
2022/11/23 03:33:30;79045.00;0.26;137.39;0.00;0.00;0.62;;;;;11.10;1.00;;;;;;2260012;61;1106;-85
2022/11/23 03:35:58;140052.00;0.47;242.66;61823.00;0.21;107.63;;;;;11.40;1.00;;;;;;2259956;61;1106;-86
2022/11/23 03:38:25;233823.00;0.78;404.13;0.00;0.00;0.62;;;;;11.70;1.00;;;;;;2260016;61;1304;-87
2022/11/23 03:40:52;101701.00;0.34;176.51;0.00;0.00;0.62;;;;;11.70;1.00;;;;;;2260056;61;2007;-89
2022/11/23 03:43:20;108916.00;0.36;188.96;0.00;0.00;0.62;;;;;11.90;1.00;;;;;;2259990;61;1040;-86
2022/11/23 03:45:47;0.00;0.00;0.62;0.00;0.00;0.62;;;;;12.00;1.00;;;;;;2259901;61;1056;-88
2022/11/23 03:48:14;160930.00;0.54;278.64;17518.00;0.06;30.97;;;;;12.10;1.00;;;;;;2260027;61;1384;-86
2022/11/23 03:50:41;100058.00;0.33;173.67;0.00;0.00;0.62;;;;;12.20;1.00;;;;;;2259745;61;1153;-88
2022/11/23 03:53:09;0.00;0.00;0.62;0.00;0.00;0.62;;;;;12.20;1.00;;;;;;2260020;61;1131;-87
2022/11/23 03:55:36;51326.00;0.17;89.48;0.00;0.00;0.62;;;;;12.10;1.00;;;;;;2259918;61;1064;-86
2022/11/23 03:58:03;131697.00;0.44;228.26;48187.00;0.16;84.05;;;;;12.20;1.00;;;;;;2260104;61;1317;-88
2022/11/23 04:00:31;159407.00;0.53;276.02;0.00;0.00;0.62;;;;;12.20;1.00;;;;;;2260670;61;1915;-87
2022/11/23 04:02:58;30162.00;0.10;52.86;0.00;0.00;0.62;;;;;12.20;1.00;;;;;;2260665;61;1094;-88
2022/11/23 04:05:26;37719.00;0.13;65.94;0.00;0.00;0.62;;;;;12.20;1.00;;;;;;2260606;61;1602;-88
2022/11/23 04:07:53;0.00;0.00;0.62;0.00;0.00;0.62;;;;;12.30;1.00;;;;;;2260496;61;1413;-88
2022/11/23 04:10:21;4275.00;0.01;8.03;0.00;0.00;0.62;;;;;12.50;1.00;;;;;;2260442;61;1054;-87
2022/11/23 04:12:51;100567.00;0.34;174.55;0.00;0.00;0.62;;;;;12.50;1.00;;;;;;2260523;61;1151;-86
2022/11/23 04:15:19;12065.00;0.04;21.53;0.00;0.00;0.62;;;;;12.40;1.00;;;;;;2260435;61;1108;-86
2022/11/23 04:17:46;0.00;0.00;0.62;0.00;0.00;0.62;;;;;12.50;1.00;;;;;;2260493;61;1251;-88
2022/11/23 04:20:14;67609.00;0.23;117.63;0.00;0.00;0.62;;;;;12.30;1.00;;;;;;2260461;61;2002;-88
2022/11/23 04:22:41;39946.00;0.13;69.79;0.00;0.00;0.62;;;;;12.10;1.00;;;;;;2260616;61;938;-87
2022/11/23 04:25:09;92662.00;0.31;160.90;0.00;0.00;0.62;;;;;12.00;1.00;;;;;;2260560;61;1158;-88
2022/11/23 04:27:37;28440.00;0.09;49.88;0.00;0.00;0.62;;;;;11.80;1.00;;;;;;2260318;61;1383;-85
2022/11/23 04:30:05;49887.00;0.17;86.99;0.00;0.00;0.62;;;;;11.90;1.00;;;;;;2260358;61;1612;-88
2022/11/23 04:32:32;43636.00;0.15;76.18;0.00;0.00;0.62;;;;;12.00;1.00;;;;;;2260398;61;1142;-87
2022/11/23 04:34:59;16553.00;0.06;29.30;0.00;0.00;0.62;;;;;11.90;1.00;;;;;;2260559;61;1137;-88
2022/11/23 04:37:26;260219.00;0.87;449.53;0.00;0.00;0.62;;;;;11.50;1.00;;;;;;2260336;61;1266;-87
2022/11/23 04:39:53;87591.00;0.29;152.15;0.00;0.00;0.62;;;;;11.20;1.00;;;;;;2260448;61;1920;-87
2022/11/23 04:44:51;286117.00;0.95;494.05;0.00;0.00;0.62;;;;;11.20;1.00;;;;;;2261875;61;1409;-87
2022/11/23 04:47:18;173596.00;0.58;300.46;0.00;0.00;0.62;;;;;11.40;1.00;;;;;;2260331;61;1271;-87
2022/11/23 04:49:45;222137.00;0.74;384.02;0.00;0.00;0.62;;;;;10.90;1.00;;;;;;2260398;61;1134;-88
2022/11/23 04:54:41;183866.00;0.61;318.15;0.00;0.00;0.62;;;;;10.30;1.00;;;;;;2261941;61;1414;-87
2022/11/23 04:59:38;541753.00;1.81;933.74;0.00;0.00;0.62;;;;;10.00;1.00;;;;;;2262302;61;1900;-88
2022/11/23 05:02:06;18560.00;0.06;32.78;0.00;0.00;0.62;;;;;9.40;1.00;;;;;;2260333;61;1037;-87
2022/11/23 05:04:34;145433.00;0.48;251.94;0.00;0.00;0.62;;;;;9.60;1.00;;;;;;2260305;61;1088;-88
2022/11/23 05:07:01;13920.00;0.05;24.74;0.00;0.00;0.62;;;;;10.10;1.00;;;;;;2265300;55;3804;-88
2022/11/23 05:09:28;166820.00;0.56;288.79;0.00;0.00;0.62;;;;;10.60;1.00;;;;;;2264299;61;1576;-86
2022/11/23 05:11:54;177282.00;0.59;306.81;0.00;0.00;0.62;;;;;10.70;1.00;;;;;;2264145;61;1012;-86
2022/11/23 05:14:21;91979.00;0.31;159.72;0.00;0.00;0.62;;;;;10.50;1.00;;;;;;2264155;61;1079;-87
2022/11/23 05:16:48;96394.00;0.32;167.35;0.00;0.00;0.62;;;;;10.70;1.00;;;;;;2264168;61;1065;-87
2022/11/23 05:19:16;48134.00;0.16;83.96;0.00;0.00;0.62;;;;;10.70;1.00;;;;;;2265922;55;3817;-85
2022/11/23 05:24:13;362255.00;1.21;624.92;0.00;0.00;0.62;;;;;10.60;1.00;;;;;;2272120;40;3507;-87
2022/11/23 05:44:18;627509.00;2.09;1081.74;0.00;0.00;0.62;;;;;10.90;1.00;;;;;;2281707;41;3451;-87
2022/11/23 06:47:03;1020973.00;3.40;1769.65;11597.00;0.04;20.72;;;;;7.90;1.00;;;;;;2491787;56;3587;31
2022/11/23 06:54:32;1244206.00;4.15;2170.35;26046.00;0.09;45.74;;;;;7.80;1.00;;;;;;2491880;56;3559;31
2022/11/23 07:17:22;1218473.00;4.06;2123.66;5692.00;0.02;10.48;;;;;8.60;1.00;;;;;;2262436;61;957;-90
2022/11/23 07:19:49;205482.00;0.68;355.36;6561.00;0.02;11.99;;;;;9.40;1.00;;;;;;2251817;61;1997;-90
2022/11/23 07:22:16;195128.00;0.65;337.54;0.00;0.00;0.62;;;;;8.60;1.00;;;;;;2252649;61;1158;-91
2022/11/23 13:02:37;1347560.00;4.49;2359.41;520.00;0.00;1.52;;;;;12.30;1.00;;;;;;825935;41;3413;-89
2022/11/23 15:38:30;1639432.00;5.46;2908.34;100128.00;0.33;173.79;;;;;14.10;1.00;;;;;;2262253;61;1319;-87
2022/11/23 15:41:03;986863.00;3.29;1709.22;135272.00;0.45;234.42;;;;;14.10;1.00;;;;;;2260597;61;2006;-89
2022/11/23 15:43:31;864099.00;2.88;1493.15;56495.00;0.19;98.42;;;;;13.90;1.00;;;;;;2260691;61;1610;-89
2022/11/23 15:46:07;1243554.00;4.15;2169.17;97145.00;0.32;168.64;;;;;13.20;1.00;;;;;;2260661;61;1634;-90
2022/11/23 15:48:36;974121.00;3.25;1686.69;68809.00;0.23;119.70;;;;;13.00;1.00;;;;;;2260598;61;1314;-89
2022/11/23 15:51:07;1388305.00;4.63;2434.65;114460.00;0.38;198.53;;;;;13.10;1.00;;;;;;2260651;61;1157;-89
2022/11/23 17:04:15;887578.00;2.96;1534.31;55927.00;0.19;97.44;;;;;13.10;1.00;;;;;;832852;56;2565;-87
2022/11/23 17:11:48;575842.00;1.92;992.52;0.00;0.00;0.62;;;;;13.20;1.00;;;;;;1610382;41;3605;-89
2022/11/23 17:24:32;474146.00;1.58;817.32;0.00;0.00;0.62;;;;;13.50;1.00;;;;;;2268875;40;3496;-87
2022/11/23 17:26:59;116895.00;0.39;202.73;0.00;0.00;0.62;;;;;13.30;1.00;;;;;;2264217;61;938;-86
2022/11/23 17:29:26;262822.00;0.88;454.00;0.00;0.00;0.62;;;;;13.30;1.00;;;;;;2264284;61;1322;-88
2022/11/23 17:31:53;112811.00;0.38;195.68;0.00;0.00;0.62;;;;;13.30;1.00;;;;;;2264348;61;1628;-87
2022/11/23 17:34:20;65772.00;0.22;114.45;0.00;0.00;0.62;;;;;13.00;1.00;;;;;;2264309;61;1596;-87
2022/11/23 17:41:55;430037.00;1.43;741.45;35114.00;0.12;61.43;;;;;12.70;1.00;;;;;;2275678;40;3493;-86
2022/11/23 17:44:23;0.00;0.00;0.62;0.00;0.00;0.62;;;;;12.70;1.00;;;;;;2271474;56;3776;-88
2022/11/23 18:01:56;983010.00;3.28;1702.40;0.00;0.00;0.62;;;;;12.70;1.00;;;;;;2282032;56;3584;-86
2022/11/23 18:06:53;1033887.00;3.45;1792.58;0.00;0.00;0.62;;;;;12.60;1.00;;;;;;2271852;56;3578;-89
2022/11/23 18:11:54;1393152.00;4.64;2443.63;0.00;0.00;0.62;;;;;12.60;1.00;;;;;;1926050;56;3638;-86
2022/11/23 18:14:23;188848.00;0.63;326.73;24169.00;0.08;42.49;;;;;12.70;1.00;;;;;;2280509;40;3717;-87
2022/11/23 18:21:54;1253489.00;4.18;2187.23;45120.00;0.15;78.75;;;;;12.60;1.00;;;;;;2274265;41;3447;-86
2022/11/23 18:24:21;861808.00;2.87;1489.14;0.00;0.00;0.62;;;;;12.60;1.00;;;;;;2266364;40;3587;-89
2022/11/23 18:39:30;957596.00;3.19;1657.51;18012.00;0.06;31.83;;;;;12.80;1.00;;;;;;2262690;61;1350;-88
2022/11/23 18:45:06;697637.00;2.33;1203.14;0.00;0.00;0.62;;;;;12.90;1.00;;;;;;2262872;61;1330;-88
2022/11/23 18:47:33;515880.00;1.72;889.17;96597.00;0.32;167.70;;;;;13.00;1.00;;;;;;2394460;40;3785;-89
2022/11/23 18:50:01;636565.00;2.12;1097.40;85386.00;0.28;148.34;;;;;13.10;1.00;;;;;;2279934;41;3561;-89
2022/11/23 18:57:38;1364985.00;4.55;2391.54;85354.00;0.28;148.28;;;;;12.80;1.00;;;;;;2292336;40;3655;-88
2022/11/23 19:05:08;2060313.00;6.87;3748.91;117714.00;0.39;204.14;;;;;13.10;1.00;;;;;;2261807;61;1192;-87
2022/11/23 19:20:11;2281374.00;7.60;4219.00;33756.00;0.11;59.08;;;;;13.40;1.00;;;;;;2331602;40;3571;-89
2022/11/23 19:22:38;1125451.00;3.75;1956.00;38905.00;0.13;67.99;;;;;13.40;1.00;;;;;;2271094;56;3790;-89
2022/11/23 19:27:39;834770.00;2.78;1441.83;48019.00;0.16;83.76;;;;;13.20;1.00;;;;;;2261604;61;1354;-88
2022/11/23 19:30:08;141032.00;0.47;244.35;0.00;0.00;0.62;;;;;12.60;1.00;;;;;;2260626;61;1084;-84
2022/11/23 19:32:35;394827.00;1.32;680.91;84718.00;0.28;147.19;;;;;12.40;1.00;;;;;;2260551;61;972;-87
2022/11/23 19:35:03;1026674.00;3.42;1779.77;29169.00;0.10;51.14;;;;;12.10;1.00;;;;;;2260657;61;960;-85
2022/11/23 19:37:34;332448.00;1.11;573.69;39692.00;0.13;69.36;;;;;12.30;1.00;;;;;;2260612;61;1343;-87
2022/11/23 19:40:01;212607.00;0.71;367.62;0.00;0.00;0.62;;;;;12.10;1.00;;;;;;2260254;61;1095;-88
2022/11/23 19:42:28;144391.00;0.48;250.14;0.00;0.00;0.62;;;;;12.10;1.00;;;;;;2260298;61;1999;-86
2022/11/23 19:44:55;741851.00;2.47;1279.89;0.00;0.00;0.62;;;;;12.00;1.00;;;;;;2260529;61;1810;-85
2022/11/23 19:49:55;283595.00;0.95;489.72;0.00;0.00;0.62;;;;;11.20;1.00;;;;;;2262194;61;1429;-87
2022/11/23 19:52:22;345633.00;1.15;596.36;47638.00;0.16;83.10;;;;;11.10;1.00;;;;;;2260525;61;1143;-87
2022/11/23 19:54:50;762919.00;2.54;1316.53;5575.00;0.02;10.28;;;;;10.80;1.00;;;;;;2260515;61;1549;-86
2022/11/23 19:57:17;120282304.00;400.94;70495648.00;275299.00;0.92;475.45;;;;;10.60;1.00;;;;;;2260547;61;1728;-86
2022/11/23 19:59:44;117761696.00;392.54;66152208.00;113419.00;0.38;196.73;;;;;10.50;1.00;;;;;;2260647;61;1716;-87
2022/11/23 20:02:23;457562.00;1.53;788.79;83585.00;0.28;145.23;;;;;10.50;1.00;;;;;;2260607;61;1919;-87
2022/11/23 20:04:50;335227.00;1.12;578.47;104832.00;0.35;181.91;;;;;11.00;1.00;;;;;;2260651;61;1064;-86
2022/11/23 20:07:18;287631.00;0.96;496.66;81370.00;0.27;141.40;;;;;11.20;1.00;;;;;;2260675;61;1143;-85
2022/11/23 20:09:45;436740.00;1.46;752.98;93901.00;0.31;163.04;;;;;11.20;1.00;;;;;;2260646;61;1107;-86
2022/11/23 20:12:14;107078.00;0.36;185.79;0.00;0.00;0.62;;;;;10.90;1.00;;;;;;2260718;61;1048;-88
2022/11/23 20:14:40;111152.00;0.37;192.82;0.00;0.00;0.62;;;;;10.60;1.00;;;;;;2260568;61;1071;-87
2022/11/23 20:17:07;89863.00;0.30;156.07;0.00;0.00;0.62;;;;;10.60;1.90;;;;;;2260601;61;1025;-86
2022/11/23 20:19:34;342189.00;1.14;590.44;33488.00;0.11;58.62;;;;;10.70;1.00;;;;;;2260561;61;1300;-87
2022/11/23 20:22:01;251058.00;0.84;433.77;0.00;0.00;0.62;;;;;11.00;2.20;;;;;;2260500;61;1922;-87
2022/11/23 20:24:28;964776.00;3.22;1670.18;31407.00;0.10;55.02;;;;;10.90;1.00;;;;;;2260393;61;1115;-86
2022/11/23 20:26:55;303088.00;1.01;523.23;95197.00;0.32;165.28;;;;;10.80;1.00;;;;;;2260586;61;1075;-88
2022/11/23 20:29:23;152623.00;0.51;264.33;0.00;0.00;0.62;;;;;10.90;1.00;;;;;;2260446;61;1392;-86
2022/11/23 20:31:50;41140.00;0.14;71.86;0.00;0.00;0.62;;;;;11.10;1.00;;;;;;2260669;61;1127;-88
2022/11/23 20:34:18;166559.00;0.56;288.34;28506.00;0.10;50.00;;;;;11.10;1.00;;;;;;2260497;61;1123;-86
2022/11/23 20:36:45;779456.00;2.60;1345.32;34102.00;0.11;59.68;;;;;11.30;1.00;;;;;;2260597;61;1604;-86
2022/11/23 20:41:48;1326919.00;4.42;2321.46;129687.00;0.43;224.79;;;;;11.10;1.00;;;;;;2262225;61;1902;-88
2022/11/23 20:44:15;57585.00;0.19;100.30;0.00;0.00;0.62;;;;;11.00;1.00;;;;;;2260499;61;1770;-88
2022/11/23 20:46:44;261304.00;0.87;451.39;0.00;0.00;0.62;;;;;10.90;1.00;;;;;;2260428;61;977;-87
2022/11/23 20:49:11;313694.00;1.05;541.46;0.00;0.00;0.62;;;;;11.10;1.00;;;;;;2260451;61;1325;-87
2022/11/23 20:51:38;993033.00;3.31;1720.14;56371.00;0.19;98.20;;;;;11.00;1.00;;;;;;2260389;61;1029;-86
2022/11/23 20:54:05;903572.00;3.01;1562.39;22126.00;0.07;38.95;;;;;10.70;1.00;;;;;;2260469;61;1623;-87
2022/11/23 20:56:32;574425.00;1.91;990.08;54305.00;0.18;94.63;;;;;11.00;1.00;;;;;;2260507;61;1729;-86
2022/11/23 20:59:00;307746.00;1.03;531.24;87409.00;0.29;151.83;;;;;11.10;1.00;;;;;;2260460;61;1294;-88
2022/11/23 21:01:27;151863.00;0.51;263.02;0.00;0.00;0.62;;;;;11.00;1.00;;;;;;2260425;61;1930;-87
2022/11/23 21:03:58;242360.00;0.81;418.81;0.00;0.00;0.62;;;;;10.90;1.00;;;;;;2260441;61;1097;-86
2022/11/23 21:06:26;146559.00;0.49;253.88;0.00;0.00;0.62;;;;;11.10;1.00;;;;;;2260370;61;1782;-87
2022/11/23 21:08:54;151096.00;0.50;261.70;0.00;0.00;0.62;;;;;11.50;1.00;;;;;;2260314;61;2089;-87
2022/11/23 21:14:14;161417.00;0.54;279.48;0.00;0.00;0.62;;;;;12.20;1.00;;;;;;2260063;61;691;-88
2022/11/23 21:16:44;21636.00;0.07;38.10;0.00;0.00;0.62;;;;;12.30;1.00;;;;;;2259997;61;1414;-87
2022/11/23 21:19:14;125184.00;0.42;217.02;0.00;0.00;0.62;;;;;12.40;1.00;;;;;;2259568;61;1776;-87
2022/11/23 21:21:41;330100.00;1.10;569.66;0.00;0.00;0.62;;;;;12.30;1.00;;;;;;2260070;61;2001;-89
2022/11/23 21:24:08;1027004.00;3.42;1780.36;65612.00;0.22;114.18;;;;;12.10;1.00;;;;;;2260367;61;1111;-86
2022/11/23 21:29:08;290167.00;0.97;501.02;0.00;0.00;0.62;;;;;12.10;1.00;;;;;;2273926;55;3791;-86
2022/11/23 21:31:36;334587.00;1.12;577.37;32812.00;0.11;57.45;;;;;11.80;1.00;;;;;;2260230;61;1029;-86
2022/11/23 21:34:04;311874.00;1.04;538.33;0.00;0.00;0.62;;;;;11.60;1.00;;;;;;2299350;57;3801;-86
2022/11/23 21:36:37;327068.00;1.09;564.45;0.00;0.00;0.62;;;;;11.50;1.00;;;;;;2264054;61;1670;-87
2022/11/23 21:39:05;140299.00;0.47;243.09;0.00;0.00;0.62;;;;;11.30;1.00;;;;;;2264254;61;1744;-87
2022/11/23 21:41:33;775228.00;2.58;1337.95;42029.00;0.14;73.40;;;;;11.50;1.00;;;;;;2264409;61;1911;-86
2022/11/23 21:46:33;402104.00;1.34;693.42;0.00;0.00;0.62;;;;;11.50;1.00;;;;;;2262142;61;1421;-87
2022/11/23 21:49:01;449958.00;1.50;775.71;0.00;0.00;0.62;;;;;12.00;1.00;;;;;;2269023;56;3765;-87
2022/11/23 21:51:30;39942.00;0.13;69.79;0.00;0.00;0.62;;;;;11.80;1.00;;;;;;2259950;61;1104;-86
2022/11/23 21:54:01;787732.00;2.63;1359.74;22051.00;0.07;38.82;;;;;11.60;1.00;;;;;;2267296;56;3762;-87
2022/11/23 21:56:29;764819.00;2.55;1319.84;92469.00;0.31;160.57;;;;;11.50;1.00;;;;;;2260065;61;1642;-86
2022/11/23 21:58:56;385359.00;1.28;664.64;86230.00;0.29;149.80;;;;;11.60;1.00;;;;;;2260128;61;1749;-87
2022/11/23 22:01:26;488714.00;1.63;842.40;86819.00;0.29;150.81;;;;;11.30;1.00;;;;;;2260203;61;1075;-87
2022/11/23 22:03:55;154546.00;0.52;267.64;0.00;0.00;0.62;;;;;11.20;1.00;;;;;;2263050;40;3624;-86
2022/11/23 22:08:58;652876.00;2.18;1125.61;0.00;0.00;0.62;;;;;10.40;1.00;;;;;;2271570;56;3753;-87
2022/11/23 22:11:27;421107.00;1.40;726.09;17424.00;0.06;30.81;;;;;10.50;1.10;;;;;;2264184;61;1649;-86
2022/11/23 22:13:56;205396.00;0.68;355.21;0.00;0.00;0.62;;;;;10.80;1.00;;;;;;2264322;61;1063;-87
2022/11/23 22:16:26;1119034.00;3.73;1944.50;102129.00;0.34;177.25;;;;;11.00;1.00;;;;;;2263939;61;1732;-88
2022/11/23 22:28:51;152705.00;0.51;264.47;0.00;0.00;0.62;;;;;11.50;1.00;;;;;;2261509;61;1430;-86
2022/11/23 22:31:19;514123.00;1.71;886.14;127322.00;0.42;220.71;;;;;11.90;1.00;;;;;;2260042;61;1025;-87
2022/11/23 22:33:48;395686.00;1.32;682.39;0.00;0.00;0.62;;;;;12.00;1.00;;;;;;2260225;61;1085;-87
2022/11/23 22:38:43;338430.00;1.13;583.98;0.00;0.00;0.62;;;;;12.30;1.00;;;;;;2261547;61;1420;-86
2022/11/23 22:46:12;993885.00;3.31;1721.64;77280.00;0.26;134.34;;;;;12.30;1.00;;;;;;2261667;61;1428;-88
2022/11/23 22:53:40;389022.00;1.30;670.93;0.00;0.00;0.62;;;;;12.80;1.00;;;;;;2274822;56;3676;-89
2022/11/23 22:58:40;630744.00;2.10;1087.34;0.00;0.00;0.62;;;;;12.20;1.00;;;;;;2264523;55;3714;-86
2022/11/23 23:43:15;257807.00;0.86;445.38;0.00;0.00;0.62;;;;;13.50;1.00;;;;;;2261681;61;1971;-87
2022/11/23 23:45:42;159129.00;0.53;275.54;0.00;0.00;0.62;;;;;13.00;1.00;;;;;;2259816;61;1053;-87
2022/11/23 23:50:39;1615839.00;5.39;2863.05;183442.00;0.61;317.42;;;;;11.90;1.00;;;;;;2261982;61;1430;-89
2022/11/23 23:53:06;1132559.00;3.78;1968.75;50416.00;0.17;87.91;;;;;12.00;1.00;;;;;;2260646;61;1087;-88
2022/11/23 23:58:06;1090321.00;3.63;1893.12;130718.00;0.44;226.57;;;;;12.10;1.00;;;;;;2262212;61;1344;-88
